New Orleans, Louisiana
Traffic Map
Current Weather Conditions
New Orleans, Louisiana
Clear
Clear
75°
Feels Like: 75°
Wind Chill: 75° Ceiling: Unl
Heat Index: 75° Visibility: 10mi
Dew Point: 54° Wind: 0mph
Humidity: 47% Direction: ° ()
Pressure: 30.09in Gusts: 0mph
Raw Report DataKVSH 260055Z AUTO 00000KT 10SM CLR 24/12 A3009 RMK AO1
Traffic Incident Summary
Active as of:
Severity:
Category:
InformationThere was an issue retrieving the traffic information for this location. Please try a different location or try again shortly.
Advertisements
Track Severe Weather on mobile